sensor_id;sensor_type;location;lat;lon;timestamp;temperature;humidity
27803;DHT22;15182;48.174;11.562;2023-04-06T00:01:55;10.10;62.60
27803;DHT22;15182;48.174;11.562;2023-04-06T00:04:27;10.00;62.60
27803;DHT22;15182;48.174;11.562;2023-04-06T00:07:00;10.00;62.70
27803;DHT22;15182;48.174;11.562;2023-04-06T00:09:31;10.00;62.70
27803;DHT22;15182;48.174;11.562;2023-04-06T00:12:03;10.00;62.80
27803;DHT22;15182;48.174;11.562;2023-04-06T00:14:36;10.00;62.90
27803;DHT22;15182;48.174;11.562;2023-04-06T00:17:08;10.00;63.00
27803;DHT22;15182;48.174;11.562;2023-04-06T00:19:41;9.90;62.90
27803;DHT22;15182;48.174;11.562;2023-04-06T00:22:14;9.90;63.10
27803;DHT22;15182;48.174;11.562;2023-04-06T00:24:47;9.90;63.10
27803;DHT22;15182;48.174;11.562;2023-04-06T00:27:19;9.90;63.20
27803;DHT22;15182;48.174;11.562;2023-04-06T00:29:50;9.80;63.20
27803;DHT22;15182;48.174;11.562;2023-04-06T00:32:22;9.80;64.00
27803;DHT22;15182;48.174;11.562;2023-04-06T00:34:53;9.80;63.30
27803;DHT22;15182;48.174;11.562;2023-04-06T00:37:26;9.80;63.30
27803;DHT22;15182;48.174;11.562;2023-04-06T00:39:58;9.80;63.50
27803;DHT22;15182;48.174;11.562;2023-04-06T00:42:30;9.80;64.30
27803;DHT22;15182;48.174;11.562;2023-04-06T00:45:02;9.80;63.40
27803;DHT22;15182;48.174;11.562;2023-04-06T00:47:34;9.70;63.40
27803;DHT22;15182;48.174;11.562;2023-04-06T00:50:05;9.70;63.50
27803;DHT22;15182;48.174;11.562;2023-04-06T00:52:40;9.70;63.40
27803;DHT22;15182;48.174;11.562;2023-04-06T00:55:11;9.70;64.30
27803;DHT22;15182;48.174;11.562;2023-04-06T00:57:46;9.70;63.40
27803;DHT22;15182;48.174;11.562;2023-04-06T01:00:19;9.60;63.50
27803;DHT22;15182;48.174;11.562;2023-04-06T01:02:56;9.60;63.50
27803;DHT22;15182;48.174;11.562;2023-04-06T01:05:36;9.60;63.50
27803;DHT22;15182;48.174;11.562;2023-04-06T01:08:15;9.60;63.50
27803;DHT22;15182;48.174;11.562;2023-04-06T01:10:49;9.60;63.70
27803;DHT22;15182;48.174;11.562;2023-04-06T01:13:27;9.60;63.70
27803;DHT22;15182;48.174;11.562;2023-04-06T01:16:05;9.50;63.70
27803;DHT22;15182;48.174;11.562;2023-04-06T01:18:50;9.50;63.70
27803;DHT22;15182;48.174;11.562;2023-04-06T01:21:26;9.50;63.80
27803;DHT22;15182;48.174;11.562;2023-04-06T01:24:23;9.50;63.70
27803;DHT22;15182;48.174;11.562;2023-04-06T01:27:02;9.50;63.80
27803;DHT22;15182;48.174;11.562;2023-04-06T01:29:48;9.50;63.70
27803;DHT22;15182;48.174;11.562;2023-04-06T01:32:35;9.50;63.80
27803;DHT22;15182;48.174;11.562;2023-04-06T01:35:07;9.50;63.80
27803;DHT22;15182;48.174;11.562;2023-04-06T01:37:48;9.40;63.80
27803;DHT22;15182;48.174;11.562;2023-04-06T01:40:28;9.40;63.90
27803;DHT22;15182;48.174;11.562;2023-04-06T01:43:00;9.40;64.00
27803;DHT22;15182;48.174;11.562;2023-04-06T01:45:42;9.40;64.00
27803;DHT22;15182;48.174;11.562;2023-04-06T01:48:18;9.30;64.00
27803;DHT22;15182;48.174;11.562;2023-04-06T01:50:52;9.30;64.10
27803;DHT22;15182;48.174;11.562;2023-04-06T01:53:29;9.30;64.20
27803;DHT22;15182;48.174;11.562;2023-04-06T01:56:08;9.30;64.20
27803;DHT22;15182;48.174;11.562;2023-04-06T01:58:44;9.30;64.40
27803;DHT22;15182;48.174;11.562;2023-04-06T02:01:18;9.20;64.40
27803;DHT22;15182;48.174;11.562;2023-04-06T02:03:57;9.20;64.40
27803;DHT22;15182;48.174;11.562;2023-04-06T02:06:28;9.20;64.50
27803;DHT22;15182;48.174;11.562;2023-04-06T02:09:02;9.20;64.50
27803;DHT22;15182;48.174;11.562;2023-04-06T02:11:35;9.20;64.70
27803;DHT22;15182;48.174;11.562;2023-04-06T02:14:07;9.20;64.60
27803;DHT22;15182;48.174;11.562;2023-04-06T02:16:44;9.10;64.50
27803;DHT22;15182;48.174;11.562;2023-04-06T02:19:16;9.10;64.60
27803;DHT22;15182;48.174;11.562;2023-04-06T02:21:48;9.10;64.80
27803;DHT22;15182;48.174;11.562;2023-04-06T02:24:19;9.10;64.90
27803;DHT22;15182;48.174;11.562;2023-04-06T02:26:53;9.00;64.90
27803;DHT22;15182;48.174;11.562;2023-04-06T02:29:24;9.00;65.00
27803;DHT22;15182;48.174;11.562;2023-04-06T02:31:56;9.00;65.00
27803;DHT22;15182;48.174;11.562;2023-04-06T02:34:28;9.00;65.10
27803;DHT22;15182;48.174;11.562;2023-04-06T02:36:59;9.00;65.10
27803;DHT22;15182;48.174;11.562;2023-04-06T02:39:31;9.00;65.20
27803;DHT22;15182;48.174;11.562;2023-04-06T02:42:06;9.00;65.30
27803;DHT22;15182;48.174;11.562;2023-04-06T02:44:37;8.90;65.40
27803;DHT22;15182;48.174;11.562;2023-04-06T02:47:10;8.90;65.40
27803;DHT22;15182;48.174;11.562;2023-04-06T02:49:45;8.90;65.50
27803;DHT22;15182;48.174;11.562;2023-04-06T02:52:18;8.90;66.40
27803;DHT22;15182;48.174;11.562;2023-04-06T02:54:50;8.90;65.70
27803;DHT22;15182;48.174;11.562;2023-04-06T02:57:29;8.90;65.70
27803;DHT22;15182;48.174;11.562;2023-04-06T03:00:00;8.90;65.70
27803;DHT22;15182;48.174;11.562;2023-04-06T03:02:39;8.90;65.70
27803;DHT22;15182;48.174;11.562;2023-04-06T03:05:14;8.80;66.50
27803;DHT22;15182;48.174;11.562;2023-04-06T03:07:47;8.80;65.60
27803;DHT22;15182;48.174;11.562;2023-04-06T03:10:27;8.80;65.70
27803;DHT22;15182;48.174;11.562;2023-04-06T03:13:00;8.80;65.70
27803;DHT22;15182;48.174;11.562;2023-04-06T03:15:52;8.70;65.90
27803;DHT22;15182;48.174;11.562;2023-04-06T03:18:24;8.70;65.80
27803;DHT22;15182;48.174;11.562;2023-04-06T03:20:57;8.70;66.00
27803;DHT22;15182;48.174;11.562;2023-04-06T03:23:48;8.70;66.00
27803;DHT22;15182;48.174;11.562;2023-04-06T03:26:19;8.60;66.00
27803;DHT22;15182;48.174;11.562;2023-04-06T03:28:54;8.60;66.10
27803;DHT22;15182;48.174;11.562;2023-04-06T03:31:30;8.60;66.20
27803;DHT22;15182;48.174;11.562;2023-04-06T03:34:07;8.60;66.20
27803;DHT22;15182;48.174;11.562;2023-04-06T03:36:39;8.60;66.30
27803;DHT22;15182;48.174;11.562;2023-04-06T03:39:10;8.50;66.30
27803;DHT22;15182;48.174;11.562;2023-04-06T03:41:44;8.50;66.40
27803;DHT22;15182;48.174;11.562;2023-04-06T03:44:37;8.50;66.60
27803;DHT22;15182;48.174;11.562;2023-04-06T03:47:09;8.50;66.70
27803;DHT22;15182;48.174;11.562;2023-04-06T03:49:40;8.50;66.70
27803;DHT22;15182;48.174;11.562;2023-04-06T03:52:13;8.50;66.70
27803;DHT22;15182;48.174;11.562;2023-04-06T03:54:45;8.50;66.80
27803;DHT22;15182;48.174;11.562;2023-04-06T03:57:16;8.50;67.80
27803;DHT22;15182;48.174;11.562;2023-04-06T03:59:49;8.50;67.00
27803;DHT22;15182;48.174;11.562;2023-04-06T04:02:21;8.50;67.20
27803;DHT22;15182;48.174;11.562;2023-04-06T04:04:52;8.50;67.20
27803;DHT22;15182;48.174;11.562;2023-04-06T04:07:23;8.50;67.20
27803;DHT22;15182;48.174;11.562;2023-04-06T04:09:55;8.40;67.20
27803;DHT22;15182;48.174;11.562;2023-04-06T04:12:26;8.50;67.30
27803;DHT22;15182;48.174;11.562;2023-04-06T04:15:01;8.50;67.20
27803;DHT22;15182;48.174;11.562;2023-04-06T04:17:33;8.50;67.30
27803;DHT22;15182;48.174;11.562;2023-04-06T04:20:07;8.50;67.30
27803;DHT22;15182;48.174;11.562;2023-04-06T04:22:40;8.50;67.40
27803;DHT22;15182;48.174;11.562;2023-04-06T04:25:12;8.50;67.40
27803;DHT22;15182;48.174;11.562;2023-04-06T04:27:48;8.50;67.50
27803;DHT22;15182;48.174;11.562;2023-04-06T04:30:24;8.50;68.40
27803;DHT22;15182;48.174;11.562;2023-04-06T04:32:56;8.50;67.50
27803;DHT22;15182;48.174;11.562;2023-04-06T04:35:28;8.50;67.40
27803;DHT22;15182;48.174;11.562;2023-04-06T04:38:00;8.50;67.50
27803;DHT22;15182;48.174;11.562;2023-04-06T04:40:33;8.50;67.50
27803;DHT22;15182;48.174;11.562;2023-04-06T04:43:09;8.40;67.50
27803;DHT22;15182;48.174;11.562;2023-04-06T04:45:43;8.40;67.50
27803;DHT22;15182;48.174;11.562;2023-04-06T04:48:24;8.40;67.70
27803;DHT22;15182;48.174;11.562;2023-04-06T04:51:03;8.40;67.60
27803;DHT22;15182;48.174;11.562;2023-04-06T04:53:48;8.40;67.70
27803;DHT22;15182;48.174;11.562;2023-04-06T04:56:26;8.40;67.70
27803;DHT22;15182;48.174;11.562;2023-04-06T04:59:06;8.40;67.90
27803;DHT22;15182;48.174;11.562;2023-04-06T05:01:42;8.30;67.80
27803;DHT22;15182;48.174;11.562;2023-04-06T05:04:13;8.30;68.00
27803;DHT22;15182;48.174;11.562;2023-04-06T05:06:45;8.30;68.00
27803;DHT22;15182;48.174;11.562;2023-04-06T05:09:17;8.30;68.00
27803;DHT22;15182;48.174;11.562;2023-04-06T05:11:49;8.30;68.20
27803;DHT22;15182;48.174;11.562;2023-04-06T05:14:20;8.30;68.20
27803;DHT22;15182;48.174;11.562;2023-04-06T05:16:53;8.30;68.20
27803;DHT22;15182;48.174;11.562;2023-04-06T05:19:27;8.30;68.30
27803;DHT22;15182;48.174;11.562;2023-04-06T05:21:58;8.30;69.10
27803;DHT22;15182;48.174;11.562;2023-04-06T05:24:32;8.30;68.10
27803;DHT22;15182;48.174;11.562;2023-04-06T05:27:08;8.30;68.20
27803;DHT22;15182;48.174;11.562;2023-04-06T05:29:40;8.30;68.90
27803;DHT22;15182;48.174;11.562;2023-04-06T05:32:14;8.30;68.00
27803;DHT22;15182;48.174;11.562;2023-04-06T05:34:50;8.30;68.00
27803;DHT22;15182;48.174;11.562;2023-04-06T05:37:22;8.30;68.00
27803;DHT22;15182;48.174;11.562;2023-04-06T05:39:53;8.40;68.10
27803;DHT22;15182;48.174;11.562;2023-04-06T05:42:25;8.40;68.00
27803;DHT22;15182;48.174;11.562;2023-04-06T05:44:59;8.40;68.10
27803;DHT22;15182;48.174;11.562;2023-04-06T05:47:32;8.40;68.00
27803;DHT22;15182;48.174;11.562;2023-04-06T05:50:14;8.50;68.00
27803;DHT22;15182;48.174;11.562;2023-04-06T05:52:47;8.50;67.80
27803;DHT22;15182;48.174;11.562;2023-04-06T05:55:22;8.50;68.60
27803;DHT22;15182;48.174;11.562;2023-04-06T05:58:05;8.50;67.70
27803;DHT22;15182;48.174;11.562;2023-04-06T06:00:36;8.50;67.70
27803;DHT22;15182;48.174;11.562;2023-04-06T06:03:11;8.50;67.80
27803;DHT22;15182;48.174;11.562;2023-04-06T06:05:47;8.50;67.80
27803;DHT22;15182;48.174;11.562;2023-04-06T06:08:27;8.60;67.90
27803;DHT22;15182;48.174;11.562;2023-04-06T06:10:59;8.60;67.80
27803;DHT22;15182;48.174;11.562;2023-04-06T06:13:31;8.60;67.80
27803;DHT22;15182;48.174;11.562;2023-04-06T06:16:03;8.70;67.70
27803;DHT22;15182;48.174;11.562;2023-04-06T06:18:41;8.70;67.70
27803;DHT22;15182;48.174;11.562;2023-04-06T06:21:13;8.70;67.80
27803;DHT22;15182;48.174;11.562;2023-04-06T06:23:45;8.70;67.80
27803;DHT22;15182;48.174;11.562;2023-04-06T06:26:20;8.80;67.80
27803;DHT22;15182;48.174;11.562;2023-04-06T06:28:52;8.80;67.70
27803;DHT22;15182;48.174;11.562;2023-04-06T06:31:24;8.80;68.50
27803;DHT22;15182;48.174;11.562;2023-04-06T06:33:58;8.90;67.60
27803;DHT22;15182;48.174;11.562;2023-04-06T06:36:32;8.90;67.60
27803;DHT22;15182;48.174;11.562;2023-04-06T06:39:04;9.00;68.30
27803;DHT22;15182;48.174;11.562;2023-04-06T06:41:36;9.00;67.50
27803;DHT22;15182;48.174;11.562;2023-04-06T06:44:08;9.00;67.40
27803;DHT22;15182;48.174;11.562;2023-04-06T06:46:40;9.00;67.20
27803;DHT22;15182;48.174;11.562;2023-04-06T06:49:13;9.10;67.20
27803;DHT22;15182;48.174;11.562;2023-04-06T06:51:44;9.10;67.30
27803;DHT22;15182;48.174;11.562;2023-04-06T06:54:17;9.20;67.10
27803;DHT22;15182;48.174;11.562;2023-04-06T06:56:48;9.20;66.90
27803;DHT22;15182;48.174;11.562;2023-04-06T06:59:20;9.20;66.60
27803;DHT22;15182;48.174;11.562;2023-04-06T07:01:52;9.30;66.50
27803;DHT22;15182;48.174;11.562;2023-04-06T07:04:25;9.30;66.40
27803;DHT22;15182;48.174;11.562;2023-04-06T07:06:56;9.30;66.50
27803;DHT22;15182;48.174;11.562;2023-04-06T07:09:29;9.40;67.60
27803;DHT22;15182;48.174;11.562;2023-04-06T07:12:01;9.40;66.70
27803;DHT22;15182;48.174;11.562;2023-04-06T07:14:32;9.50;66.70
27803;DHT22;15182;48.174;11.562;2023-04-06T07:17:04;9.60;66.90
27803;DHT22;15182;48.174;11.562;2023-04-06T07:19:37;9.70;66.70
27803;DHT22;15182;48.174;11.562;2023-04-06T07:22:08;9.90;66.80
27803;DHT22;15182;48.174;11.562;2023-04-06T07:24:40;10.00;66.60
27803;DHT22;15182;48.174;11.562;2023-04-06T07:27:11;10.20;66.40
27803;DHT22;15182;48.174;11.562;2023-04-06T07:29:44;10.30;65.90
27803;DHT22;15182;48.174;11.562;2023-04-06T07:32:17;10.40;65.50
27803;DHT22;15182;48.174;11.562;2023-04-06T07:34:50;10.50;65.20
27803;DHT22;15182;48.174;11.562;2023-04-06T07:37:21;10.60;65.00
27803;DHT22;15182;48.174;11.562;2023-04-06T07:39:53;10.70;65.00
27803;DHT22;15182;48.174;11.562;2023-04-06T07:42:26;10.80;64.80
27803;DHT22;15182;48.174;11.562;2023-04-06T07:44:58;10.90;64.30
27803;DHT22;15182;48.174;11.562;2023-04-06T07:47:30;11.00;64.40
27803;DHT22;15182;48.174;11.562;2023-04-06T07:50:05;11.10;64.10
27803;DHT22;15182;48.174;11.562;2023-04-06T07:52:38;11.20;63.80
27803;DHT22;15182;48.174;11.562;2023-04-06T07:55:11;11.30;63.70
27803;DHT22;15182;48.174;11.562;2023-04-06T07:57:42;11.40;63.30
27803;DHT22;15182;48.174;11.562;2023-04-06T08:00:14;11.50;63.10
27803;DHT22;15182;48.174;11.562;2023-04-06T08:02:46;11.70;62.90
27803;DHT22;15182;48.174;11.562;2023-04-06T08:05:19;11.90;62.80
27803;DHT22;15182;48.174;11.562;2023-04-06T08:07:51;12.00;62.50
27803;DHT22;15182;48.174;11.562;2023-04-06T08:10:22;12.10;62.00
27803;DHT22;15182;48.174;11.562;2023-04-06T08:12:54;12.30;61.80
27803;DHT22;15182;48.174;11.562;2023-04-06T08:15:25;12.30;61.50
27803;DHT22;15182;48.174;11.562;2023-04-06T08:17:57;12.40;61.40
27803;DHT22;15182;48.174;11.562;2023-04-06T08:20:30;12.50;61.00
27803;DHT22;15182;48.174;11.562;2023-04-06T08:23:01;12.60;60.60
27803;DHT22;15182;48.174;11.562;2023-04-06T08:25:36;12.70;60.40
27803;DHT22;15182;48.174;11.562;2023-04-06T08:28:08;12.80;60.10
27803;DHT22;15182;48.174;11.562;2023-04-06T08:30:43;12.80;59.90
27803;DHT22;15182;48.174;11.562;2023-04-06T08:33:14;12.90;59.40
27803;DHT22;15182;48.174;11.562;2023-04-06T08:35:47;12.90;59.60
27803;DHT22;15182;48.174;11.562;2023-04-06T08:38:19;13.00;59.70
27803;DHT22;15182;48.174;11.562;2023-04-06T08:40:51;13.10;59.70
27803;DHT22;15182;48.174;11.562;2023-04-06T08:43:24;13.20;59.50
27803;DHT22;15182;48.174;11.562;2023-04-06T08:45:57;13.20;59.20
27803;DHT22;15182;48.174;11.562;2023-04-06T08:48:29;13.30;59.30
27803;DHT22;15182;48.174;11.562;2023-04-06T08:51:02;13.40;59.30
27803;DHT22;15182;48.174;11.562;2023-04-06T08:53:35;13.60;60.00
27803;DHT22;15182;48.174;11.562;2023-04-06T08:56:07;13.70;60.10
27803;DHT22;15182;48.174;11.562;2023-04-06T08:58:42;13.80;59.10
27803;DHT22;15182;48.174;11.562;2023-04-06T09:01:16;14.00;58.90
27803;DHT22;15182;48.174;11.562;2023-04-06T09:03:50;14.00;58.90
27803;DHT22;15182;48.174;11.562;2023-04-06T09:06:27;14.10;58.90
27803;DHT22;15182;48.174;11.562;2023-04-06T09:08:58;14.20;58.60
27803;DHT22;15182;48.174;11.562;2023-04-06T09:11:40;14.30;58.70
27803;DHT22;15182;48.174;11.562;2023-04-06T09:14:14;14.40;58.40
27803;DHT22;15182;48.174;11.562;2023-04-06T09:16:47;14.60;58.50
27803;DHT22;15182;48.174;11.562;2023-04-06T09:19:19;14.60;59.10
27803;DHT22;15182;48.174;11.562;2023-04-06T09:22:00;14.70;58.10
27803;DHT22;15182;48.174;11.562;2023-04-06T09:24:41;14.90;58.00
27803;DHT22;15182;48.174;11.562;2023-04-06T09:27:14;15.00;57.70
27803;DHT22;15182;48.174;11.562;2023-04-06T09:29:47;15.10;57.90
27803;DHT22;15182;48.174;11.562;2023-04-06T09:32:18;15.20;57.40
27803;DHT22;15182;48.174;11.562;2023-04-06T09:34:51;15.30;57.30
27803;DHT22;15182;48.174;11.562;2023-04-06T09:37:27;15.40;57.10
27803;DHT22;15182;48.174;11.562;2023-04-06T09:40:05;15.50;57.20
27803;DHT22;15182;48.174;11.562;2023-04-06T09:42:42;15.60;57.10
27803;DHT22;15182;48.174;11.562;2023-04-06T09:45:14;15.80;56.90
27803;DHT22;15182;48.174;11.562;2023-04-06T09:47:47;15.90;57.10
27803;DHT22;15182;48.174;11.562;2023-04-06T09:50:21;16.10;56.40
27803;DHT22;15182;48.174;11.562;2023-04-06T09:52:56;16.20;56.30
27803;DHT22;15182;48.174;11.562;2023-04-06T09:55:33;16.30;55.90
27803;DHT22;15182;48.174;11.562;2023-04-06T09:58:07;16.40;55.70
27803;DHT22;15182;48.174;11.562;2023-04-06T10:00:47;16.50;56.50
27803;DHT22;15182;48.174;11.562;2023-04-06T10:03:25;16.60;55.60
27803;DHT22;15182;48.174;11.562;2023-04-06T10:06:07;16.70;55.60
27803;DHT22;15182;48.174;11.562;2023-04-06T10:08:45;16.80;55.80
27803;DHT22;15182;48.174;11.562;2023-04-06T10:11:20;16.90;55.40
27803;DHT22;15182;48.174;11.562;2023-04-06T10:13:53;17.10;55.40
27803;DHT22;15182;48.174;11.562;2023-04-06T10:16:27;17.10;54.80
27803;DHT22;15182;48.174;11.562;2023-04-06T10:19:00;17.10;54.60
27803;DHT22;15182;48.174;11.562;2023-04-06T10:21:35;17.00;54.30
27803;DHT22;15182;48.174;11.562;2023-04-06T10:24:11;17.00;54.50
27803;DHT22;15182;48.174;11.562;2023-04-06T10:26:44;16.90;54.50
27803;DHT22;15182;48.174;11.562;2023-04-06T10:29:26;16.90;54.60
27803;DHT22;15182;48.174;11.562;2023-04-06T10:31:59;17.00;54.70
27803;DHT22;15182;48.174;11.562;2023-04-06T10:34:36;17.00;54.20
27803;DHT22;15182;48.174;11.562;2023-04-06T10:37:18;17.00;53.80
27803;DHT22;15182;48.174;11.562;2023-04-06T10:39:54;16.90;53.70
27803;DHT22;15182;48.174;11.562;2023-04-06T10:42:35;16.70;53.90
27803;DHT22;15182;48.174;11.562;2023-04-06T10:45:18;16.60;54.60
27803;DHT22;15182;48.174;11.562;2023-04-06T10:47:53;16.70;54.60
27803;DHT22;15182;48.174;11.562;2023-04-06T10:50:25;16.80;54.20
27803;DHT22;15182;48.174;11.562;2023-04-06T10:53:03;17.00;54.20
27803;DHT22;15182;48.174;11.562;2023-04-06T10:55:36;17.10;53.60
27803;DHT22;15182;48.174;11.562;2023-04-06T10:58:10;17.00;53.90
27803;DHT22;15182;48.174;11.562;2023-04-06T11:00:46;17.00;54.10
27803;DHT22;15182;48.174;11.562;2023-04-06T11:03:19;16.90;53.70
27803;DHT22;15182;48.174;11.562;2023-04-06T11:05:53;16.90;53.90
27803;DHT22;15182;48.174;11.562;2023-04-06T11:08:24;16.80;54.40
27803;DHT22;15182;48.174;11.562;2023-04-06T11:11:09;16.70;53.70
27803;DHT22;15182;48.174;11.562;2023-04-06T11:13:44;16.60;53.40
27803;DHT22;15182;48.174;11.562;2023-04-06T11:16:18;16.50;54.00
27803;DHT22;15182;48.174;11.562;2023-04-06T11:18:55;16.40;54.00
27803;DHT22;15182;48.174;11.562;2023-04-06T11:21:36;16.40;53.70
27803;DHT22;15182;48.174;11.562;2023-04-06T11:24:11;16.30;53.80
27803;DHT22;15182;48.174;11.562;2023-04-06T11:26:46;16.30;54.00
27803;DHT22;15182;48.174;11.562;2023-04-06T11:29:22;16.30;53.70
27803;DHT22;15182;48.174;11.562;2023-04-06T11:32:00;16.30;53.70
27803;DHT22;15182;48.174;11.562;2023-04-06T11:34:36;16.20;53.80
27803;DHT22;15182;48.174;11.562;2023-04-06T11:37:09;16.30;54.60
27803;DHT22;15182;48.174;11.562;2023-04-06T11:39:43;16.40;54.90
27803;DHT22;15182;48.174;11.562;2023-04-06T11:42:23;16.60;55.10
27803;DHT22;15182;48.174;11.562;2023-04-06T11:44:58;17.00;54.80
27803;DHT22;15182;48.174;11.562;2023-04-06T11:47:32;17.30;54.30
27803;DHT22;15182;48.174;11.562;2023-04-06T11:50:09;17.50;54.00
27803;DHT22;15182;48.174;11.562;2023-04-06T11:52:42;17.60;53.50
27803;DHT22;15182;48.174;11.562;2023-04-06T11:55:15;17.60;53.50
27803;DHT22;15182;48.174;11.562;2023-04-06T11:57:49;17.60;53.40
27803;DHT22;15182;48.174;11.562;2023-04-06T12:00:22;17.50;53.50
27803;DHT22;15182;48.174;11.562;2023-04-06T12:02:55;17.50;54.10
27803;DHT22;15182;48.174;11.562;2023-04-06T12:05:27;17.50;54.00
27803;DHT22;15182;48.174;11.562;2023-04-06T12:08:03;17.70;53.90
27803;DHT22;15182;48.174;11.562;2023-04-06T12:10:34;17.90;53.60
27803;DHT22;15182;48.174;11.562;2023-04-06T12:13:07;18.10;53.40
27803;DHT22;15182;48.174;11.562;2023-04-06T12:15:38;18.20;52.90
27803;DHT22;15182;48.174;11.562;2023-04-06T12:18:10;18.30;52.80
27803;DHT22;15182;48.174;11.562;2023-04-06T12:20:41;18.40;52.60
27803;DHT22;15182;48.174;11.562;2023-04-06T12:23:12;18.40;52.30
27803;DHT22;15182;48.174;11.562;2023-04-06T12:25:44;18.40;52.10
27803;DHT22;15182;48.174;11.562;2023-04-06T12:28:17;18.30;51.90
27803;DHT22;15182;48.174;11.562;2023-04-06T12:30:51;18.10;51.60
27803;DHT22;15182;48.174;11.562;2023-04-06T12:33:23;17.90;51.90
27803;DHT22;15182;48.174;11.562;2023-04-06T12:35:54;17.70;52.70
27803;DHT22;15182;48.174;11.562;2023-04-06T12:38:25;17.60;52.10
27803;DHT22;15182;48.174;11.562;2023-04-06T12:40:57;17.40;52.20
27803;DHT22;15182;48.174;11.562;2023-04-06T12:43:30;17.30;52.30
27803;DHT22;15182;48.174;11.562;2023-04-06T12:46:04;17.20;53.10
27803;DHT22;15182;48.174;11.562;2023-04-06T12:48:35;17.10;52.40
27803;DHT22;15182;48.174;11.562;2023-04-06T12:51:09;17.20;52.50
27803;DHT22;15182;48.174;11.562;2023-04-06T12:53:41;17.30;52.40
27803;DHT22;15182;48.174;11.562;2023-04-06T12:56:16;17.40;52.70
27803;DHT22;15182;48.174;11.562;2023-04-06T12:58:50;17.60;52.30
27803;DHT22;15182;48.174;11.562;2023-04-06T13:01:23;17.80;52.20
27803;DHT22;15182;48.174;11.562;2023-04-06T13:03:55;17.90;52.10
27803;DHT22;15182;48.174;11.562;2023-04-06T13:06:27;18.10;52.10
27803;DHT22;15182;48.174;11.562;2023-04-06T13:08:58;18.20;51.80
27803;DHT22;15182;48.174;11.562;2023-04-06T13:11:30;18.30;51.80
27803;DHT22;15182;48.174;11.562;2023-04-06T13:14:02;18.40;51.60
27803;DHT22;15182;48.174;11.562;2023-04-06T13:16:34;18.40;51.50
27803;DHT22;15182;48.174;11.562;2023-04-06T13:19:07;18.50;51.50
27803;DHT22;15182;48.174;11.562;2023-04-06T13:21:38;18.50;51.30
27803;DHT22;15182;48.174;11.562;2023-04-06T13:24:11;18.60;51.60
27803;DHT22;15182;48.174;11.562;2023-04-06T13:26:43;18.70;51.50
27803;DHT22;15182;48.174;11.562;2023-04-06T13:29:16;18.80;51.70
27803;DHT22;15182;48.174;11.562;2023-04-06T13:31:48;19.00;51.20
27803;DHT22;15182;48.174;11.562;2023-04-06T13:34:20;19.00;50.90
27803;DHT22;15182;48.174;11.562;2023-04-06T13:36:51;19.00;50.90
27803;DHT22;15182;48.174;11.562;2023-04-06T13:39:22;19.10;50.70
27803;DHT22;15182;48.174;11.562;2023-04-06T13:41:55;19.10;50.70
27803;DHT22;15182;48.174;11.562;2023-04-06T13:44:28;19.10;50.60
27803;DHT22;15182;48.174;11.562;2023-04-06T13:46:59;19.20;50.40
27803;DHT22;15182;48.174;11.562;2023-04-06T13:49:31;19.20;50.50
27803;DHT22;15182;48.174;11.562;2023-04-06T13:52:03;19.10;50.30
27803;DHT22;15182;48.174;11.562;2023-04-06T13:54:35;18.90;50.10
27803;DHT22;15182;48.174;11.562;2023-04-06T13:57:06;18.80;50.30
27803;DHT22;15182;48.174;11.562;2023-04-06T13:59:39;18.70;50.40
27803;DHT22;15182;48.174;11.562;2023-04-06T14:02:12;18.60;50.50
27803;DHT22;15182;48.174;11.562;2023-04-06T14:04:44;18.50;50.20
27803;DHT22;15182;48.174;11.562;2023-04-06T14:07:17;18.50;50.60
27803;DHT22;15182;48.174;11.562;2023-04-06T14:09:49;18.50;50.70
27803;DHT22;15182;48.174;11.562;2023-04-06T14:12:22;18.50;50.80
27803;DHT22;15182;48.174;11.562;2023-04-06T14:14:56;18.50;50.80
27803;DHT22;15182;48.174;11.562;2023-04-06T14:17:27;18.60;51.20
27803;DHT22;15182;48.174;11.562;2023-04-06T14:19:58;18.60;51.00
27803;DHT22;15182;48.174;11.562;2023-04-06T14:22:30;18.60;50.90
27803;DHT22;15182;48.174;11.562;2023-04-06T14:25:02;18.60;50.90
27803;DHT22;15182;48.174;11.562;2023-04-06T14:27:33;18.60;50.70
27803;DHT22;15182;48.174;11.562;2023-04-06T14:30:07;18.60;50.50
27803;DHT22;15182;48.174;11.562;2023-04-06T14:32:40;18.60;50.60
27803;DHT22;15182;48.174;11.562;2023-04-06T14:35:13;18.50;51.20
27803;DHT22;15182;48.174;11.562;2023-04-06T14:37:44;18.50;50.90
27803;DHT22;15182;48.174;11.562;2023-04-06T14:40:17;18.40;50.20
27803;DHT22;15182;48.174;11.562;2023-04-06T14:42:49;18.30;50.00
27803;DHT22;15182;48.174;11.562;2023-04-06T14:45:22;18.20;50.20
27803;DHT22;15182;48.174;11.562;2023-04-06T14:47:53;18.10;50.30
27803;DHT22;15182;48.174;11.562;2023-04-06T14:50:26;18.00;50.40
27803;DHT22;15182;48.174;11.562;2023-04-06T14:52:57;17.90;50.40
27803;DHT22;15182;48.174;11.562;2023-04-06T14:55:29;17.70;51.20
27803;DHT22;15182;48.174;11.562;2023-04-06T14:58:00;17.60;50.60
27803;DHT22;15182;48.174;11.562;2023-04-06T15:00:32;17.60;50.70
27803;DHT22;15182;48.174;11.562;2023-04-06T15:03:05;17.50;50.80
27803;DHT22;15182;48.174;11.562;2023-04-06T15:05:36;17.40;50.70
27803;DHT22;15182;48.174;11.562;2023-04-06T15:08:08;17.30;50.80
27803;DHT22;15182;48.174;11.562;2023-04-06T15:10:41;17.20;50.90
27803;DHT22;15182;48.174;11.562;2023-04-06T15:13:13;17.20;51.70
27803;DHT22;15182;48.174;11.562;2023-04-06T15:15:45;17.10;51.00
27803;DHT22;15182;48.174;11.562;2023-04-06T15:18:20;17.10;51.00
27803;DHT22;15182;48.174;11.562;2023-04-06T15:20:52;17.00;50.90
27803;DHT22;15182;48.174;11.562;2023-04-06T15:23:24;17.00;50.90
27803;DHT22;15182;48.174;11.562;2023-04-06T15:25:58;16.90;51.00
27803;DHT22;15182;48.174;11.562;2023-04-06T15:28:31;16.90;51.30
27803;DHT22;15182;48.174;11.562;2023-04-06T15:31:04;16.90;50.90
27803;DHT22;15182;48.174;11.562;2023-04-06T15:33:44;16.90;50.80
27803;DHT22;15182;48.174;11.562;2023-04-06T15:36:25;16.90;51.00
27803;DHT22;15182;48.174;11.562;2023-04-06T15:38:58;16.90;50.90
27803;DHT22;15182;48.174;11.562;2023-04-06T15:41:34;16.90;51.20
27803;DHT22;15182;48.174;11.562;2023-04-06T15:44:05;16.90;51.00
27803;DHT22;15182;48.174;11.562;2023-04-06T15:46:38;17.00;51.10
27803;DHT22;15182;48.174;11.562;2023-04-06T15:49:09;16.90;50.90
27803;DHT22;15182;48.174;11.562;2023-04-06T15:51:41;16.90;51.00
27803;DHT22;15182;48.174;11.562;2023-04-06T15:54:12;16.90;51.10
27803;DHT22;15182;48.174;11.562;2023-04-06T15:56:43;16.90;51.00
27803;DHT22;15182;48.174;11.562;2023-04-06T15:59:15;16.90;50.90
27803;DHT22;15182;48.174;11.562;2023-04-06T16:01:48;16.90;50.80
27803;DHT22;15182;48.174;11.562;2023-04-06T16:04:20;16.90;50.60